Time;durP1;ratioP1;P1;durP2;ratioP2;P2;SDS_P1;SDS_P2;PMS_P1;PMS_P2;Temp;Humidity;BMP_temperature;BMP_pressure;BME280_temperature;BME280_humidity;BME280_pressure;Samples;Min_cycle;Max_cycle;Signal;HPM_P1;HPM_P2
2022/10/03 00:01:51;;;;;;;27.77;14.80;;;11.50;99.90;;;;;;6237422;23;20166;-80
2022/10/03 00:04:43;;;;;;;28.60;12.55;;;11.50;99.90;;;;;;6238292;22;20144;-80
2022/10/03 00:07:24;;;;;;;34.05;15.57;;;11.30;99.90;;;;;;6219639;23;20188;-81
2022/10/03 00:10:16;;;;;;;33.38;13.75;;;11.50;99.90;;;;;;6238069;23;20151;-80
2022/10/03 00:13:39;;;;;;;30.73;15.07;;;11.50;99.90;;;;;;6239503;23;20186;-80
2022/10/03 00:16:05;;;;;;;32.05;15.80;;;;;;;;;;6090636;23;20190;-81
2022/10/03 00:18:56;;;;;;;34.00;17.07;;;11.70;99.90;;;;;;6120491;23;20148;-81
2022/10/03 00:21:50;;;;;;;35.40;17.15;;;11.40;99.90;;;;;;6199825;22;20731;-79
2022/10/03 00:24:41;;;;;;;29.73;15.50;;;11.40;99.90;;;;;;6233755;22;20137;-78
2022/10/03 00:27:08;;;;;;;26.92;16.05;;;;;;;;;;6232830;23;20191;-78
2022/10/03 00:30:14;;;;;;;33.20;15.70;;;11.40;99.90;;;;;;6238703;22;20149;-82
2022/10/03 00:32:47;;;;;;;30.17;14.65;;;11.30;99.90;;;;;;6086888;23;20151;-83
2022/10/03 00:35:50;;;;;;;27.90;13.70;;;11.30;99.90;;;;;;6221609;22;20224;-81
2022/10/03 00:38:50;;;;;;;34.45;15.35;;;11.50;99.90;;;;;;6231681;23;20317;-80
2022/10/03 00:41:42;;;;;;;30.35;15.38;;;11.40;99.90;;;;;;6242061;23;20193;-79
2022/10/03 00:44:53;;;;;;;31.25;13.60;;;11.40;99.90;;;;;;6237465;22;20233;-79
2022/10/03 00:47:42;;;;;;;39.38;15.82;;;11.40;99.90;;;;;;6233056;23;20192;-79
2022/10/03 00:50:21;;;;;;;30.83;14.23;;;11.40;99.90;;;;;;6238626;23;20140;-78
2022/10/03 00:53:04;;;;;;;34.92;14.95;;;11.40;99.90;;;;;;6236001;22;20151;-81
2022/10/03 00:55:48;;;;;;;30.48;15.15;;;11.40;99.90;;;;;;6238652;23;20232;-80
2022/10/03 00:58:44;;;;;;;28.55;14.82;;;11.20;99.90;;;;;;6238094;23;20204;-82
2022/10/03 01:01:35;;;;;;;34.42;15.32;;;11.40;99.90;;;;;;6236894;23;20149;-77
2022/10/03 01:04:33;;;;;;;33.58;15.00;;;11.30;99.90;;;;;;6235768;22;20133;-81
2022/10/03 01:07:21;;;;;;;32.15;14.55;;;11.30;99.90;;;;;;6235297;23;20215;-82
2022/10/03 01:10:00;;;;;;;29.35;16.52;;;11.50;99.90;;;;;;6234536;23;20156;-81
2022/10/03 01:12:57;;;;;;;38.67;15.40;;;11.30;99.90;;;;;;6233701;22;20760;-80
2022/10/03 01:15:44;;;;;;;24.55;15.60;;;10.70;99.90;;;;;;6230024;23;20822;-80
2022/10/03 01:18:42;;;;;;;30.55;15.30;;;11.30;99.90;;;;;;6228057;23;20169;-80
2022/10/03 01:21:20;;;;;;;36.05;17.80;;;11.30;99.90;;;;;;6232142;22;20163;-79
2022/10/03 01:23:45;;;;;;;35.05;16.70;;;11.20;99.90;;;;;;6229679;23;20661;-82
2022/10/03 01:26:48;;;;;;;35.27;16.73;;;11.20;99.90;;;;;;6234351;23;20173;-80
2022/10/03 01:32:27;;;;;;;37.50;18.10;;;11.00;99.90;;;;;;6232660;23;20148;-80
2022/10/03 01:35:06;;;;;;;41.15;17.83;;;10.90;99.90;;;;;;6233921;22;20212;-77
2022/10/03 01:37:46;;;;;;;34.40;16.75;;;10.90;99.90;;;;;;6240769;23;20904;-79
2022/10/03 01:40:29;;;;;;;35.25;15.60;;;10.70;99.90;;;;;;6229927;23;20148;-81
2022/10/03 01:43:17;;;;;;;39.75;17.13;;;11.00;99.90;;;;;;6242283;22;20643;-81
2022/10/03 01:45:50;;;;;;;32.47;14.35;;;11.00;99.90;;;;;;6239160;23;20831;-79
2022/10/03 01:49:03;;;;;;;30.95;15.88;;;11.00;99.90;;;;;;6238764;23;20694;-80
2022/10/03 01:51:50;;;;;;;21.52;12.68;;;11.10;99.90;;;;;;6226313;23;20159;-82
2022/10/03 01:54:19;;;;;;;28.77;14.23;;;11.00;99.90;;;;;;6233855;22;20194;-78
2022/10/03 01:57:14;;;;;;;26.85;13.02;;;10.60;99.90;;;;;;6236481;23;20180;-81
2022/10/03 02:00:05;;;;;;;26.98;12.85;;;10.90;99.90;;;;;;6239422;22;20168;-81
2022/10/03 02:02:41;;;;;;;30.88;12.40;;;11.00;99.90;;;;;;6214103;23;20161;-81
2022/10/03 02:05:20;;;;;;;25.50;12.95;;;11.10;99.90;;;;;;6234184;22;20136;-81
2022/10/03 02:07:54;;;;;;;23.95;12.27;;;11.00;99.90;;;;;;6230745;23;20241;-80
2022/10/03 02:10:24;;;;;;;20.85;11.50;;;11.00;99.90;;;;;;6229968;23;20218;-81
2022/10/03 02:13:35;;;;;;;23.40;11.38;;;11.00;99.90;;;;;;6230335;23;20165;-81
2022/10/03 02:16:16;;;;;;;21.02;9.82;;;11.00;99.90;;;;;;6212972;23;20152;-78
2022/10/03 02:19:26;;;;;;;27.80;10.32;;;10.90;99.90;;;;;;6237259;23;20230;-81
2022/10/03 02:21:54;;;;;;;18.38;8.45;;;11.10;99.90;;;;;;6085918;23;20175;-80
2022/10/03 02:24:49;;;;;;;14.25;8.02;;;11.10;99.90;;;;;;6111361;23;20655;-83
2022/10/03 02:27:33;;;;;;;15.98;7.90;;;11.00;99.90;;;;;;6196431;22;20222;-80
2022/10/03 02:30:04;;;;;;;23.70;8.90;;;11.00;99.90;;;;;;6230629;23;20148;-79
2022/10/03 02:33:03;;;;;;;13.70;8.55;;;10.90;99.90;;;;;;6228754;23;20254;-81
2022/10/03 02:35:29;;;;;;;12.07;6.55;;;;;;;;;;6229422;23;20175;-79
2022/10/03 02:38:23;;;;;;;9.23;6.10;;;11.00;99.90;;;;;;6225582;23;20176;-81
2022/10/03 02:40:55;;;;;;;9.07;6.45;;;10.80;99.90;;;;;;6226576;23;20446;-83
2022/10/03 02:43:22;;;;;;;20.35;8.40;;;;;;;;;;6233515;22;20143;-80
2022/10/03 02:46:25;;;;;;;14.02;7.65;;;11.00;99.90;;;;;;6228722;23;20160;-80
2022/10/03 02:49:32;;;;;;;13.95;7.22;;;11.00;99.90;;;;;;6234685;23;20152;-82
2022/10/03 02:52:14;;;;;;;12.05;7.35;;;11.00;99.90;;;;;;6232895;22;20199;-77
2022/10/03 02:55:17;;;;;;;13.82;6.70;;;11.00;99.90;;;;;;6238471;22;20132;-76
2022/10/03 02:58:11;;;;;;;19.58;8.15;;;11.00;99.90;;;;;;6236954;23;20176;-78
2022/10/03 03:01:12;;;;;;;15.63;8.25;;;10.90;99.90;;;;;;6236799;23;20156;-81
2022/10/03 03:04:09;;;;;;;21.77;9.32;;;11.00;99.90;;;;;;6234144;23;20205;-79
2022/10/03 03:06:58;;;;;;;16.85;9.13;;;10.80;99.90;;;;;;6234830;23;20207;-81
2022/10/03 03:09:40;;;;;;;20.25;7.78;;;11.00;99.90;;;;;;6231670;23;20155;-80
2022/10/03 03:12:59;;;;;;;13.73;8.60;;;10.90;99.90;;;;;;6234223;23;20151;-78
2022/10/03 03:15:52;;;;;;;25.90;10.10;;;10.80;99.90;;;;;;6143552;23;20154;-81
2022/10/03 03:18:30;;;;;;;22.90;9.90;;;;;;;;;;6166812;23;20146;-80
2022/10/03 03:21:21;;;;;;;22.20;8.75;;;10.80;99.90;;;;;;6216225;23;20206;-81
2022/10/03 03:26:17;;;;;;;18.05;9.60;;;;;;;;;;6260427;22;20193;-87
2022/10/03 03:29:32;;;;;;;17.35;8.48;;;8.70;99.90;;;;;;6263814;23;20168;-89
2022/10/03 03:32:19;;;;;;;18.35;9.50;;;10.80;99.90;;;;;;6184026;22;20179;-88
2022/10/03 03:35:20;;;;;;;16.90;9.70;;;10.80;99.90;;;;;;6241487;23;20176;-88
2022/10/03 03:38:06;;;;;;;25.35;11.25;;;10.70;99.90;;;;;;6244334;23;20148;-88
2022/10/03 03:40:50;;;;;;;21.63;11.40;;;10.80;99.90;;;;;;6247696;23;20149;-88
2022/10/03 03:43:43;;;;;;;23.45;11.43;;;10.80;99.90;;;;;;6245769;22;20168;-89
2022/10/03 03:46:32;;;;;;;21.42;11.88;;;10.90;99.90;;;;;;6241322;22;21149;-89
2022/10/03 03:49:22;;;;;;;26.38;11.73;;;10.80;99.90;;;;;;6248081;22;20140;-89
2022/10/03 03:52:30;;;;;;;19.63;11.25;;;10.80;99.90;;;;;;6243990;23;20201;-89
2022/10/03 03:55:15;;;;;;;26.65;12.00;;;10.80;99.90;;;;;;6247812;22;20172;-89
2022/10/03 03:57:41;;;;;;;29.85;11.38;;;;;;;;;;6245756;23;20152;-89
2022/10/03 04:00:19;;;;;;;25.73;12.10;;;10.80;99.90;;;;;;6246822;23;20171;-88
2022/10/03 04:02:49;;;;;;;22.83;12.80;;;10.80;99.90;;;;;;6244983;23;20379;-89
2022/10/03 04:05:29;;;;;;;25.73;12.18;;;11.30;99.90;;;;;;6248844;22;20168;-88
2022/10/03 04:08:11;;;;;;;18.65;11.18;;;10.80;99.90;;;;;;6239967;23;20171;-88
2022/10/03 04:10:52;;;;;;;27.45;12.15;;;11.00;99.90;;;;;;6246323;23;20140;-88
2022/10/03 04:13:46;;;;;;;22.83;11.88;;;11.00;99.90;;;;;;6244422;23;20179;-88
2022/10/03 04:16:16;;;;;;;29.55;13.65;;;11.00;99.90;;;;;;6244634;23;20190;-88
2022/10/03 04:18:57;;;;;;;40.35;13.95;;;;;;;;;;6243457;23;20567;-88
2022/10/03 04:21:23;;;;;;;30.40;12.65;;;;;;;;;;6249864;23;20129;-88
2022/10/03 04:23:50;;;;;;;26.23;13.93;;;;;;;;;;6243127;23;20169;-87
2022/10/03 04:26:22;;;;;;;28.55;14.35;;;;;;;;;;6246084;22;20415;-86
2022/10/03 04:29:22;;;;;;;22.40;11.90;;;11.10;99.90;;;;;;6243578;23;20133;-88
2022/10/03 04:32:14;;;;;;;39.75;16.77;;;11.10;99.90;;;;;;6248193;23;20173;-87
2022/10/03 04:35:03;;;;;;;28.27;12.85;;;11.00;99.90;;;;;;6249196;22;20705;-87
2022/10/03 04:37:42;;;;;;;28.00;12.63;;;11.00;99.90;;;;;;6246284;23;20220;-87
2022/10/03 04:40:42;;;;;;;36.25;15.10;;;11.00;99.90;;;;;;6247675;22;20275;-87
2022/10/03 04:43:17;;;;;;;31.60;12.38;;;10.70;99.90;;;;;;6256982;23;20639;-87
2022/10/03 04:45:43;;;;;;;28.35;13.23;;;;;;;;;;6250812;23;20152;-86
2022/10/03 04:48:17;;;;;;;19.98;10.98;;;11.00;99.90;;;;;;6249737;23;20177;-87
2022/10/03 04:51:07;;;;;;;23.95;11.77;;;11.00;99.90;;;;;;6250579;22;20183;-86
2022/10/03 04:53:52;;;;;;;22.92;12.55;;;11.00;99.90;;;;;;6263749;22;20161;-85
2022/10/03 04:56:26;;;;;;;23.70;11.85;;;11.00;99.90;;;;;;6245802;22;20136;-87
2022/10/03 04:59:10;;;;;;;32.97;14.20;;;11.00;99.90;;;;;;6233887;23;20611;-86
2022/10/03 05:02:01;;;;;;;26.15;15.23;;;11.10;99.90;;;;;;6244738;22;20143;-87
2022/10/03 05:04:59;;;;;;;27.55;13.30;;;11.10;99.90;;;;;;6244701;22;20161;-86
2022/10/03 05:07:47;;;;;;;24.20;13.30;;;11.10;99.90;;;;;;6246335;22;20180;-87
2022/10/03 05:10:49;;;;;;;33.42;14.82;;;11.10;99.90;;;;;;6247375;22;20129;-87
2022/10/03 05:13:38;;;;;;;22.88;13.88;;;11.10;99.90;;;;;;6247194;22;20233;-87
2022/10/03 05:16:05;;;;;;;41.65;16.42;;;;;;;;;;6246350;23;20144;-87
2022/10/03 05:18:44;;;;;;;34.00;16.90;;;11.10;99.90;;;;;;6251070;22;20153;-87
2022/10/03 05:21:34;;;;;;;26.35;15.93;;;11.00;99.90;;;;;;6240496;23;20176;-87
2022/10/03 05:24:30;;;;;;;30.83;14.70;;;11.20;99.90;;;;;;6239853;23;20168;-87
2022/10/03 05:27:26;;;;;;;31.92;14.93;;;11.00;99.90;;;;;;6241738;23;20176;-88
2022/10/03 05:30:14;;;;;;;39.97;16.55;;;11.00;99.90;;;;;;6246409;22;20188;-87
2022/10/03 05:32:59;;;;;;;36.95;16.45;;;11.00;99.90;;;;;;6243274;22;20145;-87
2022/10/03 05:35:44;;;;;;;33.78;16.98;;;11.00;99.90;;;;;;6238120;23;20151;-87
2022/10/03 05:38:21;;;;;;;35.05;17.58;;;11.10;99.90;;;;;;6241967;22;20950;-87
2022/10/03 05:41:08;;;;;;;36.35;16.23;;;11.10;99.90;;;;;;6241176;23;20153;-86
2022/10/03 05:43:56;;;;;;;29.65;15.50;;;11.20;99.90;;;;;;6239919;22;20172;-86
2022/10/03 05:46:39;;;;;;;33.60;16.00;;;11.30;99.90;;;;;;6238425;22;20178;-87
2022/10/03 05:49:24;;;;;;;34.58;16.42;;;11.40;99.90;;;;;;6237313;22;20129;-87
2022/10/03 05:52:02;;;;;;;31.85;17.20;;;11.50;99.90;;;;;;6239912;23;20643;-87
2022/10/03 05:54:44;;;;;;;30.85;16.92;;;11.60;99.90;;;;;;6239974;23;20183;-87
2022/10/03 05:57:10;;;;;;;29.83;15.30;;;;;;;;;;6240388;22;20128;-88
2022/10/03 06:00:16;;;;;;;33.03;14.80;;;11.40;99.90;;;;;;6238673;23;20452;-87
2022/10/03 06:03:41;;;;;;;37.90;17.27;;;11.60;99.90;;;;;;6245794;23;20391;-85
2022/10/03 06:06:07;;;;;;;34.65;15.07;;;;;;;;;;6110094;23;20170;-86
2022/10/03 06:08:39;;;;;;;36.40;15.75;;;11.40;99.90;;;;;;6126677;23;20596;-86
2022/10/03 06:11:21;;;;;;;39.72;18.17;;;;;;;;;;6186878;22;20658;-86
2022/10/03 06:14:06;;;;;;;36.70;19.30;;;11.60;99.90;;;;;;6242555;23;20587;-85
2022/10/03 06:16:53;;;;;;;37.92;16.40;;;11.60;99.90;;;;;;6242512;22;20283;-86
2022/10/03 06:19:30;;;;;;;32.67;17.60;;;11.60;99.90;;;;;;6254538;22;20145;-86
2022/10/03 06:22:20;;;;;;;43.47;17.50;;;11.60;99.90;;;;;;6248452;23;20137;-85
2022/10/03 06:25:06;;;;;;;35.78;16.55;;;11.70;99.90;;;;;;6239424;23;20554;-87
2022/10/03 06:27:55;;;;;;;34.40;16.58;;;11.70;99.90;;;;;;6235798;23;20236;-87
2022/10/03 06:30:58;;;;;;;26.88;15.55;;;11.70;99.90;;;;;;6239908;22;20133;-88
2022/10/03 06:33:56;;;;;;;33.25;15.80;;;11.80;99.90;;;;;;6237553;23;20179;-87
2022/10/03 06:36:40;;;;;;;32.65;16.90;;;11.80;99.90;;;;;;6235607;23;20156;-87
2022/10/03 06:39:37;;;;;;;37.75;16.35;;;11.90;99.90;;;;;;6232368;23;20195;-87
2022/10/03 06:42:23;;;;;;;30.85;14.88;;;12.00;99.90;;;;;;6232770;23;20148;-88
2022/10/03 06:45:46;;;;;;;30.98;15.13;;;12.00;99.90;;;;;;6236010;23;20185;-88
2022/10/03 06:48:12;;;;;;;37.08;16.83;;;;;;;;;;6108457;23;20285;-87
2022/10/03 06:50:40;;;;;;;29.67;16.20;;;11.90;99.90;;;;;;6112556;23;20657;-87
2022/10/03 06:53:34;;;;;;;31.10;15.93;;;11.70;99.90;;;;;;6175405;22;20411;-87
2022/10/03 06:55:59;;;;;;;26.48;14.05;;;11.80;99.90;;;;;;6237313;23;20207;-87
2022/10/03 06:59:05;;;;;;;31.03;16.47;;;11.40;99.90;;;;;;6234009;23;20153;-86
2022/10/03 07:01:45;;;;;;;28.60;16.33;;;11.50;99.90;;;;;;6235990;22;20143;-87
2022/10/03 07:04:30;;;;;;;29.52;16.50;;;11.40;99.90;;;;;;6234119;23;20172;-88
2022/10/03 07:07:13;;;;;;;31.63;17.33;;;10.20;99.90;;;;;;6236348;23;20161;-87
2022/10/03 07:10:03;;;;;;;35.80;17.90;;;11.70;99.90;;;;;;6239285;22;20139;-88
2022/10/03 07:13:03;;;;;;;37.53;17.38;;;12.00;99.90;;;;;;6237229;23;20159;-87
2022/10/03 07:15:51;;;;;;;31.23;15.02;;;11.90;99.90;;;;;;6236190;23;20132;-87
2022/10/03 07:18:28;;;;;;;26.60;13.32;;;12.10;99.90;;;;;;6235260;23;20193;-87
2022/10/03 07:20:54;;;;;;;24.70;14.03;;;;;;;;;;6231923;23;20148;-86
2022/10/03 07:23:46;;;;;;;27.20;13.73;;;12.70;99.90;;;;;;6235000;23;20398;-86
2022/10/03 07:26:25;;;;;;;32.23;14.80;;;12.60;99.90;;;;;;6254192;23;20409;-88
2022/10/03 07:29:16;;;;;;;25.17;14.05;;;12.90;99.90;;;;;;6242810;22;20360;-86
2022/10/03 07:31:42;;;;;;;20.67;12.23;;;;;;;;;;6240190;22;20158;-87
2022/10/03 07:34:32;;;;;;;23.63;13.70;;;13.50;99.90;;;;;;6238029;23;20474;-87
2022/10/03 07:41:01;;;;;;;22.47;12.50;;;14.00;99.90;;;;;;6239115;23;20367;-87
2022/10/03 07:44:02;;;;;;;19.70;10.90;;;14.10;99.90;;;;;;6119316;23;20791;-87
2022/10/03 07:47:08;;;;;;;13.70;10.60;;;14.00;99.90;;;;;;6239115;23;20477;-88
2022/10/03 07:50:02;;;;;;;21.38;10.60;;;13.60;99.90;;;;;;6240538;22;20371;-87
2022/10/03 07:53:03;;;;;;;20.07;12.43;;;13.40;99.90;;;;;;6236431;23;21021;-87
2022/10/03 07:55:50;;;;;;;18.07;11.50;;;12.80;99.90;;;;;;6236090;23;20625;-86
2022/10/03 07:58:17;;;;;;;14.80;9.80;;;;;;;;;;6236990;23;21254;-87
2022/10/03 08:01:21;;;;;;;18.47;9.20;;;14.20;99.90;;;;;;6237940;22;20367;-86
2022/10/03 08:04:01;;;;;;;16.73;9.50;;;14.40;99.90;;;;;;6233723;23;20424;-87
2022/10/03 08:06:44;;;;;;;12.50;7.90;;;14.60;99.90;;;;;;6234218;23;20434;-87
2022/10/03 08:09:37;;;;;;;14.43;8.93;;;14.50;99.90;;;;;;6237499;22;20360;-86
2022/10/03 08:12:30;;;;;;;19.47;8.87;;;14.50;99.90;;;;;;6238022;23;20355;-86
2022/10/03 08:15:03;;;;;;;15.80;8.77;;;14.50;99.90;;;;;;6236264;22;20398;-89
2022/10/03 08:17:56;;;;;;;18.60;8.67;;;14.60;99.90;;;;;;6233141;22;20364;-90
2022/10/03 08:20:32;;;;;;;14.80;8.30;;;14.70;99.90;;;;;;6234245;23;20375;-88
2022/10/03 08:23:18;;;;;;;17.80;7.60;;;15.10;99.90;;;;;;6233662;23;20830;-87
2022/10/03 08:26:11;;;;;;;12.83;7.43;;;15.80;99.90;;;;;;6235370;22;20982;-87
2022/10/03 08:29:10;;;;;;;16.07;7.60;;;16.00;99.90;;;;;;6234743;22;20422;-87
2022/10/03 08:32:21;;;;;;;11.40;6.03;;;16.30;99.90;;;;;;6234184;23;20417;-87
2022/10/03 08:35:23;;;;;;;21.97;7.33;;;16.50;99.90;;;;;;6235266;22;20482;-88
2022/10/03 08:38:21;;;;;;;14.90;6.00;;;16.90;99.90;;;;;;6233329;22;20359;-88
2022/10/03 08:41:30;;;;;;;19.50;7.80;;;17.60;99.90;;;;;;6234826;23;20842;-88
2022/10/03 08:44:31;;;;;;;17.03;6.73;;;18.20;99.90;;;;;;6232862;22;20387;-87
2022/10/03 08:47:10;;;;;;;16.93;7.33;;;18.00;99.90;;;;;;6241204;23;20414;-87
2022/10/03 08:49:36;;;;;;;23.50;6.70;;;;;;;;;;6246252;22;20410;-87
2022/10/03 08:52:07;;;;;;;19.30;7.53;;;17.40;99.90;;;;;;6236999;23;20356;-88
2022/10/03 08:54:47;;;;;;;15.20;5.90;;;16.90;99.90;;;;;;6238352;23;20940;-88
2022/10/03 08:57:54;;;;;;;10.67;6.93;;;18.00;99.90;;;;;;6235344;23;20371;-88
2022/10/03 09:00:20;;;;;;;13.23;7.07;;;;;;;;;;6195101;23;21133;-87
2022/10/03 09:02:46;;;;;;;19.77;6.80;;;;;;;;;;6233462;23;20372;-87
2022/10/03 09:05:55;;;;;;;12.27;6.93;;;19.50;99.90;;;;;;6237811;23;21232;-87
2022/10/03 09:08:42;;;;;;;13.70;7.80;;;19.10;99.90;;;;;;6238860;22;20413;-88
2022/10/03 09:11:32;;;;;;;12.27;6.37;;;18.80;99.90;;;;;;6238169;23;20367;-87
2022/10/03 09:14:13;;;;;;;19.90;8.10;;;18.50;99.90;;;;;;6237205;22;20384;-88
2022/10/03 09:16:55;;;;;;;20.43;8.30;;;17.40;99.90;;;;;;6235961;23;20351;-88
2022/10/03 09:19:48;;;;;;;15.60;7.63;;;16.60;99.90;;;;;;6234547;23;20377;-88
2022/10/03 09:22:30;;;;;;;18.07;8.03;;;16.30;99.90;;;;;;6236059;23;20446;-86
2022/10/03 09:25:14;;;;;;;22.00;8.40;;;16.30;99.90;;;;;;6238354;22;20407;-87
2022/10/03 09:28:01;;;;;;;15.57;8.10;;;16.50;99.90;;;;;;6234960;23;20415;-86
2022/10/03 09:30:49;;;;;;;19.60;6.63;;;16.70;99.90;;;;;;6236992;23;20379;-87
2022/10/03 09:33:42;;;;;;;11.80;6.27;;;16.60;99.90;;;;;;6233283;23;20379;-87
2022/10/03 09:36:33;;;;;;;13.07;6.03;;;17.40;99.90;;;;;;6234415;23;20375;-87
2022/10/03 09:39:04;;;;;;;10.23;5.57;;;18.00;99.90;;;;;;6234289;23;20430;-86
2022/10/03 09:42:25;;;;;;;9.23;5.00;;;18.70;99.90;;;;;;6235608;22;20823;-87
2022/10/03 09:44:50;;;;;;;11.77;5.53;;;;;;;;;;6191676;23;20395;-89
2022/10/03 09:47:45;;;;;;;9.40;4.63;;;21.60;99.90;;;;;;6229486;23;20415;-88
2022/10/03 09:50:59;;;;;;;8.90;5.87;;;21.20;99.90;;;;;;6237041;23;20438;-87
2022/10/03 09:53:49;;;;;;;10.67;4.63;;;19.80;99.90;;;;;;6230862;23;20410;-88
2022/10/03 09:56:15;;;;;;;11.20;5.33;;;;;;;;;;6237248;23;20422;-87
2022/10/03 09:59:19;;;;;;;10.27;5.87;;;17.50;99.90;;;;;;6234556;23;20371;-86
2022/10/03 10:02:12;;;;;;;12.90;5.60;;;17.70;99.90;;;;;;6233710;23;20389;-87
2022/10/03 10:05:19;;;;;;;8.20;4.20;;;17.90;99.90;;;;;;6232933;23;20400;-88
2022/10/03 10:08:08;;;;;;;8.87;3.70;;;17.90;99.90;;;;;;6211107;23;20498;-87
2022/10/03 10:10:33;;;;;;;9.93;4.30;;;;;;;;;;6238646;23;20835;-87
2022/10/03 10:13:20;;;;;;;9.60;4.63;;;17.30;99.90;;;;;;6238420;23;20440;-88
2022/10/03 10:16:10;;;;;;;11.07;4.53;;;16.80;99.90;;;;;;6231665;23;20466;-87
2022/10/03 10:19:02;;;;;;;13.13;5.50;;;16.40;99.90;;;;;;6222749;23;20376;-87
2022/10/03 10:22:02;;;;;;;19.53;4.80;;;16.20;99.90;;;;;;6231365;23;20376;-87
2022/10/03 10:24:45;;;;;;;9.23;4.83;;;16.10;99.90;;;;;;6232915;22;20461;-87
2022/10/03 10:27:47;;;;;;;7.77;4.47;;;16.40;99.90;;;;;;6234820;22;20963;-87
2022/10/03 10:30:53;;;;;;;15.30;5.63;;;16.40;99.90;;;;;;6234555;23;20385;-88
2022/10/03 10:33:56;;;;;;;14.87;3.97;;;16.70;99.90;;;;;;6235850;23;20484;-86
2022/10/03 10:36:51;;;;;;;13.03;4.30;;;16.90;99.90;;;;;;6247511;23;20398;-87
2022/10/03 10:39:21;;;;;;;12.27;4.00;;;;;;;;;;6245903;22;20487;-86
2022/10/03 10:42:25;;;;;;;10.67;4.23;;;16.50;99.90;;;;;;6238633;22;20376;-86
2022/10/03 10:45:28;;;;;;;10.40;4.37;;;16.80;99.90;;;;;;6241505;23;21251;-89
2022/10/03 10:48:32;;;;;;;9.90;3.53;;;17.40;99.90;;;;;;6235739;23;20425;-88
2022/10/03 10:51:33;;;;;;;7.17;3.30;;;17.50;99.90;;;;;;6236926;23;20379;-87
2022/10/03 10:54:37;;;;;;;10.30;3.67;;;17.00;99.90;;;;;;6237859;23;20394;-87
2022/10/03 10:57:22;;;;;;;7.57;3.43;;;17.80;99.90;;;;;;6235574;23;20380;-90
2022/10/03 11:00:32;;;;;;;7.17;4.00;;;17.00;99.90;;;;;;6237550;23;20469;-88
2022/10/03 11:03:36;;;;;;;9.30;3.57;;;17.20;99.90;;;;;;6203328;23;20419;-88
2022/10/03 11:06:21;;;;;;;6.37;3.33;;;17.30;99.90;;;;;;6238707;22;20450;-87
2022/10/03 11:08:49;;;;;;;11.20;3.70;;;;;;;;;;6235154;23;20397;-88
2022/10/03 11:11:34;;;;;;;13.73;3.83;;;18.00;99.90;;;;;;6228230;22;20427;-88
2022/10/03 11:14:00;;;;;;;10.40;3.60;;;;;;;;;;6238116;23;20395;-88
2022/10/03 11:17:00;;;;;;;7.10;3.53;;;17.70;99.90;;;;;;6239338;23;20374;-86
2022/10/03 11:20:08;;;;;;;10.53;3.20;;;17.60;99.90;;;;;;6239319;23;20757;-86
2022/10/03 11:22:56;;;;;;;5.87;3.60;;;18.00;99.90;;;;;;6237485;22;20352;-87
2022/10/03 11:25:59;;;;;;;9.23;3.50;;;18.90;99.90;;;;;;6238624;23;20383;-86
2022/10/03 11:28:43;;;;;;;13.90;3.33;;;18.70;99.90;;;;;;6239146;23;20421;-87
2022/10/03 11:31:36;;;;;;;13.90;3.00;;;18.80;99.90;;;;;;6241332;23;20368;-88
2022/10/03 11:34:30;;;;;;;5.67;2.30;;;18.80;99.90;;;;;;6246175;23;20406;-88
2022/10/03 11:37:04;;;;;;;7.80;3.90;;;18.50;99.90;;;;;;6245387;23;20371;-87
2022/10/03 11:39:48;;;;;;;13.13;3.07;;;18.00;99.90;;;;;;6228584;23;20940;-87
2022/10/03 11:42:38;;;;;;;6.67;3.53;;;17.80;99.90;;;;;;6231354;23;21138;-87
2022/10/03 11:45:47;;;;;;;9.13;3.40;;;17.70;99.90;;;;;;6240458;22;20394;-87
2022/10/03 11:48:30;;;;;;;5.43;3.90;;;17.10;99.90;;;;;;6207858;23;20430;-87
2022/10/03 11:51:04;;;;;;;7.87;3.10;;;16.70;99.90;;;;;;6240605;22;20355;-86
2022/10/03 11:53:30;;;;;;;8.43;3.60;;;;;;;;;;6237771;22;20395;-87
2022/10/03 11:56:11;;;;;;;8.30;3.40;;;16.70;99.90;;;;;;6239145;23;20378;-87
2022/10/03 11:58:49;;;;;;;13.77;3.60;;;16.90;99.90;;;;;;6240531;23;20370;-87
2022/10/03 12:01:26;;;;;;;8.33;3.63;;;16.90;99.90;;;;;;6240640;23;20509;-86
2022/10/03 12:03:52;;;;;;;8.13;3.10;;;;;;;;;;6235309;23;20399;-86
2022/10/03 12:09:18;;;;;;;7.00;3.43;;;17.00;99.90;;;;;;6236386;23;20385;-87
2022/10/03 12:12:26;;;;;;;6.20;4.10;;;16.80;99.90;;;;;;6238165;22;20707;-88
2022/10/03 12:14:56;;;;;;;14.27;3.97;;;16.60;99.90;;;;;;6236694;23;20437;-86
2022/10/03 12:17:42;;;;;;;9.03;3.90;;;17.20;99.90;;;;;;6240769;22;20368;-87
2022/10/03 12:20:24;;;;;;;4.47;3.33;;;17.10;99.90;;;;;;6241087;22;20360;-86
2022/10/03 12:23:10;;;;;;;11.10;3.50;;;17.30;99.90;;;;;;6236102;22;20363;-87
2022/10/03 12:25:41;;;;;;;9.53;3.87;;;16.70;99.90;;;;;;6231002;23;20460;-86
2022/10/03 12:28:24;;;;;;;13.07;3.63;;;16.50;99.90;;;;;;6233991;23;20438;-87
2022/10/03 12:31:00;;;;;;;9.50;4.23;;;16.10;99.90;;;;;;6238098;22;20356;-86
2022/10/03 12:33:27;;;;;;;10.80;4.20;;;;;;;;;;6234694;22;20390;-87
2022/10/03 12:36:08;;;;;;;12.37;5.10;;;16.70;99.90;;;;;;6235821;22;20707;-87
2022/10/03 12:38:52;;;;;;;8.27;4.33;;;16.90;99.90;;;;;;6237944;22;20360;-87
2022/10/03 12:42:13;;;;;;;6.53;3.80;;;17.20;99.90;;;;;;6236264;23;20383;-87
2022/10/03 12:45:11;;;;;;;11.23;4.10;;;17.50;99.90;;;;;;6174042;23;20413;-87
2022/10/03 12:47:59;;;;;;;13.33;4.00;;;17.90;99.90;;;;;;6238411;22;20407;-86
2022/10/03 12:50:55;;;;;;;8.63;3.70;;;18.40;99.90;;;;;;6240518;22;21152;-87
2022/10/03 12:53:30;;;;;;;8.07;3.50;;;18.40;99.90;;;;;;6235183;22;20936;-87
2022/10/03 12:56:06;;;;;;;18.37;4.20;;;18.40;99.90;;;;;;6240321;23;20401;-87
2022/10/03 12:58:45;;;;;;;10.93;3.97;;;18.10;99.90;;;;;;6226950;22;20429;-87
2022/10/03 13:01:19;;;;;;;15.40;3.83;;;17.60;99.90;;;;;;6241866;22;20439;-87
2022/10/03 13:04:13;;;;;;;10.90;3.60;;;17.10;99.90;;;;;;6237600;23;20714;-87
2022/10/03 13:06:53;;;;;;;10.47;4.50;;;17.30;99.90;;;;;;6240744;22;20435;-87
2022/10/03 13:09:55;;;;;;;11.70;4.20;;;17.60;99.90;;;;;;6236201;23;20793;-87
2022/10/03 13:12:55;;;;;;;14.00;4.20;;;17.70;99.90;;;;;;6236964;22;20355;-87
2022/10/03 13:15:43;;;;;;;5.93;3.47;;;17.60;99.90;;;;;;6239463;22;20378;-86
2022/10/03 13:18:24;;;;;;;6.87;3.67;;;17.00;99.90;;;;;;6252195;22;20379;-86
2022/10/03 13:21:07;;;;;;;9.93;3.43;;;16.70;99.90;;;;;;6261337;22;20386;-87
2022/10/03 13:23:46;;;;;;;6.73;3.00;;;16.70;99.90;;;;;;6250366;22;20391;-87
2022/10/03 13:26:12;;;;;;;15.83;4.47;;;;;;;;;;6241042;23;20395;-87
2022/10/03 13:29:16;;;;;;;7.00;2.77;;;16.90;99.90;;;;;;6241588;23;20506;-87
2022/10/03 13:32:10;;;;;;;9.90;3.20;;;16.70;99.90;;;;;;6239083;22;20697;-87
2022/10/03 13:34:42;;;;;;;6.43;3.40;;;16.90;99.90;;;;;;6231511;23;20435;-86
2022/10/03 13:37:50;;;;;;;7.57;4.53;;;16.90;99.90;;;;;;6240893;23;20383;-86
2022/10/03 13:40:18;;;;;;;8.27;3.90;;;16.90;99.90;;;;;;6209059;23;20380;-86
2022/10/03 13:42:52;;;;;;;8.23;3.30;;;16.80;99.90;;;;;;6238802;22;20390;-85
2022/10/03 13:45:24;;;;;;;6.20;2.90;;;16.90;99.90;;;;;;6240180;22;20458;-87
2022/10/03 13:48:04;;;;;;;6.20;3.03;;;16.80;99.90;;;;;;6238341;22;20415;-87
2022/10/03 13:50:47;;;;;;;6.10;3.40;;;16.60;99.90;;;;;;6240275;22;20453;-86
2022/10/03 13:53:42;;;;;;;4.33;2.47;;;16.60;99.90;;;;;;6239305;22;20366;-86
2022/10/03 13:56:29;;;;;;;11.47;3.90;;;16.60;99.90;;;;;;6204643;23;20388;-88
2022/10/03 13:59:24;;;;;;;7.70;3.10;;;16.70;99.90;;;;;;6234621;23;20724;-88
2022/10/03 14:01:53;;;;;;;22.27;7.37;;;;;;;;;;6236701;23;20368;-86
2022/10/03 14:04:47;;;;;;;4.63;2.97;;;17.30;99.90;;;;;;6238526;23;20419;-87
2022/10/03 14:07:58;;;;;;;3.67;2.40;;;17.20;99.90;;;;;;6232922;22;20818;-88
2022/10/03 14:10:25;;;;;;;8.23;3.10;;;;;;;;;;6237872;23;20399;-85
2022/10/03 14:13:15;;;;;;;6.63;2.73;;;17.30;99.90;;;;;;6236125;23;20371;-86
2022/10/03 14:15:58;;;;;;;4.10;2.67;;;17.50;99.90;;;;;;6244085;23;20414;-87
2022/10/03 14:18:43;;;;;;;5.67;2.90;;;17.30;99.90;;;;;;6214580;23;20396;-89
2022/10/03 14:21:35;;;;;;;3.30;1.97;;;17.00;99.90;;;;;;6207872;23;20352;-87
2022/10/03 14:24:03;;;;;;;5.20;1.70;;;;;;;;;;6208561;23;20448;-87
2022/10/03 14:26:49;;;;;;;8.03;1.93;;;17.00;99.90;;;;;;6206706;23;20380;-87
2022/10/03 14:29:42;;;;;;;2.80;2.00;;;16.90;99.90;;;;;;6206517;23;20411;-87
2022/10/03 14:32:23;;;;;;;3.90;1.80;;;17.00;99.90;;;;;;6205792;23;20372;-86
2022/10/03 14:34:49;;;;;;;4.63;1.73;;;;;;;;;;6206878;23;20434;-88
2022/10/03 14:37:20;;;;;;;5.93;1.90;;;;;;;;;;6208383;23;20725;-85
2022/10/03 14:40:03;;;;;;;3.60;2.07;;;18.00;99.90;;;;;;6206921;23;20383;-89